Time;durP1;ratioP1;P1;durP2;ratioP2;P2;SDS_P1;SDS_P2;PMS_P1;PMS_P2;Temp;Humidity;BMP_temperature;BMP_pressure;BME280_temperature;BME280_humidity;BME280_pressure;Samples;Min_cycle;Max_cycle;Signal;HPM_P1;HPM_P2
2023/10/13 00:02:01;;;;;;;25.50;12.40;;;;;;;22.45;49.57;99928.62;108034;1253;70410;-64
2023/10/13 00:04:29;;;;;;;24.60;12.90;;;;;;;22.58;49.37;99930.12;107964;1253;72685;-67
2023/10/13 00:06:56;;;;;;;27.70;13.20;;;;;;;22.48;49.53;99934.11;107979;1253;60533;-67
2023/10/13 00:09:25;;;;;;;26.70;12.50;;;;;;;22.33;50.23;99934.30;108081;1253;59647;-65
2023/10/13 00:11:53;;;;;;;22.00;12.90;;;;;;;22.43;49.57;99935.34;108024;1253;71530;-66
2023/10/13 00:14:21;;;;;;;24.10;13.60;;;;;;;22.41;50.35;99940.80;107957;1256;69026;-67
2023/10/13 00:17:03;;;;;;;28.00;14.00;;;;;;;22.50;50.34;99938.52;107980;1257;73189;-67
2023/10/13 00:19:38;;;;;;;33.70;13.80;;;;;;;22.64;49.92;99935.64;107980;1256;61694;-68
2023/10/13 00:22:10;;;;;;;25.10;12.80;;;;;;;22.67;50.21;99930.52;107969;1256;60146;-66
2023/10/13 00:24:49;;;;;;;25.30;13.50;;;;;;;22.59;50.21;99928.73;107896;1255;73041;-67
2023/10/13 00:27:33;;;;;;;22.90;13.30;;;;;;;22.65;50.43;99925.73;107939;1257;70146;-67
2023/10/13 00:30:21;;;;;;;24.70;12.60;;;;;;;22.44;51.12;99917.74;107921;1256;72021;-68
2023/10/13 00:32:57;;;;;;;20.90;12.60;;;;;;;22.32;51.58;99911.67;107971;1254;60394;-68
2023/10/13 00:35:29;;;;;;;26.80;15.00;;;;;;;22.36;51.60;99900.41;107938;1256;60027;-67
2023/10/13 00:38:04;;;;;;;20.30;11.80;;;;;;;22.43;51.64;99903.25;107938;1255;73032;-68
2023/10/13 00:48:54;;;;;;;25.90;13.80;;;;;;;22.38;51.73;99916.16;107689;1253;60253;-68
2023/10/13 00:51:40;;;;;;;25.40;13.70;;;;;;;22.33;51.69;99919.63;107802;1253;72228;-67
2023/10/13 00:54:11;;;;;;;22.90;12.00;;;;;;;22.42;52.24;99915.09;108071;1253;70481;-67
2023/10/13 00:56:57;;;;;;;20.60;11.50;;;;;;;22.50;51.81;99916.15;108012;1254;72269;-67
2023/10/13 00:59:25;;;;;;;22.10;14.10;;;;;;;22.76;50.81;99915.05;107924;1253;62221;-67
2023/10/13 01:01:55;;;;;;;23.70;11.60;;;;;;;22.43;51.86;99915.38;107999;1259;60238;-68
2023/10/13 01:04:27;;;;;;;24.40;12.90;;;;;;;22.47;51.77;99921.12;108032;1253;73549;-67
2023/10/13 01:06:56;;;;;;;26.40;13.00;;;;;;;22.52;51.60;99921.30;107921;1253;70479;-66
2023/10/13 01:09:24;;;;;;;18.60;11.20;;;;;;;22.42;51.95;99917.58;108022;1253;72113;-67
2023/10/13 01:11:52;;;;;;;28.00;14.00;;;;;;;22.51;51.30;99916.63;107961;1253;62080;-66
2023/10/13 01:14:21;;;;;;;19.80;12.70;;;;;;;22.58;51.45;99925.23;108008;1253;60370;-67
2023/10/13 01:16:52;;;;;;;18.80;11.90;;;;;;;22.54;51.48;99927.23;108018;1253;73833;-68
2023/10/13 01:19:24;;;;;;;19.60;12.50;;;;;;;22.48;51.77;99926.51;108000;1254;70537;-68
2023/10/13 01:22:03;;;;;;;20.30;11.70;;;;;;;22.50;51.85;99928.13;108017;1254;72498;-67
2023/10/13 01:24:34;;;;;;;16.60;10.70;;;;;;;22.46;51.43;99931.20;108015;1254;61736;-68
2023/10/13 01:27:19;;;;;;;;;;;;;;;22.42;51.81;99936.18;107968;1254;60396;-67
2023/10/13 01:30:05;;;;;;;24.80;12.10;;;;;;;22.27;52.77;99938.40;107966;1254;72628;-69
2023/10/13 01:32:33;;;;;;;16.20;11.50;;;;;;;22.49;52.36;99938.77;107993;1259;69573;-67
2023/10/13 01:35:06;;;;;;;21.50;13.10;;;;;;;22.56;52.06;99942.63;108004;1257;71983;-68
2023/10/13 01:37:33;;;;;;;19.60;12.30;;;;;;;22.60;52.09;99943.91;107983;1257;61649;-67
2023/10/13 01:40:00;;;;;;;22.20;13.40;;;;;;;22.29;52.32;99946.35;108000;1254;60306;-68
2023/10/13 01:42:30;;;;;;;24.00;12.80;;;;;;;22.10;52.85;99948.25;107941;1254;73841;-67
2023/10/13 01:45:05;;;;;;;20.70;11.90;;;;;;;22.47;52.23;99954.35;107930;1255;70116;-67
2023/10/13 01:47:33;;;;;;;19.60;11.90;;;;;;;22.74;51.21;99956.92;107924;1256;72652;-69
2023/10/13 01:50:13;;;;;;;24.20;13.60;;;;;;;22.70;52.10;99959.77;107773;1256;61632;-68
2023/10/13 01:52:43;;;;;;;20.10;13.90;;;;;;;22.79;52.05;99953.60;107886;1257;60434;-69
2023/10/13 01:55:11;;;;;;;21.00;13.10;;;;;;;22.93;51.69;99953.21;107929;1255;74316;-68
2023/10/13 01:57:47;;;;;;;26.50;13.60;;;;;;;22.98;51.77;99956.05;107953;1257;70302;-66
2023/10/13 02:00:18;;;;;;;23.20;13.20;;;;;;;22.80;51.65;99956.14;107832;1256;71380;-69
2023/10/13 02:02:49;;;;;;;24.00;14.10;;;;;;;22.87;51.85;99961.12;107803;1254;61627;-67
2023/10/13 02:05:17;;;;;;;18.50;11.40;;;;;;;22.89;51.98;99966.68;107812;1256;60553;-68
2023/10/13 02:07:45;;;;;;;26.00;14.60;;;;;;;22.87;51.77;99970.98;107964;1256;72641;-68
2023/10/13 02:10:13;;;;;;;25.60;14.40;;;;;;;22.62;52.38;99972.27;107942;1255;70187;-67
2023/10/13 02:12:43;;;;;;;21.30;12.50;;;;;;;22.39;53.03;99975.46;107954;1257;72737;-67
2023/10/13 02:15:21;;;;;;;26.60;13.90;;;;;;;22.34;53.21;99977.99;107969;1259;60559;-66
2023/10/13 02:17:52;;;;;;;22.20;13.60;;;;;;;22.33;54.04;99981.66;107850;1255;60302;-67
2023/10/13 02:20:23;;;;;;;20.30;13.80;;;;;;;22.16;54.23;99987.86;107765;1261;73189;-68
2023/10/13 02:22:51;;;;;;;28.30;14.50;;;;;;;21.89;54.82;99989.64;107690;1256;69990;-67
2023/10/13 02:25:35;;;;;;;21.20;13.60;;;;;;;21.88;55.59;99992.77;107947;1257;71239;-68
2023/10/13 02:28:08;;;;;;;27.90;14.20;;;;;;;21.88;55.41;99991.65;107949;1256;60467;-67
2023/10/13 02:30:48;;;;;;;19.00;13.40;;;;;;;21.68;55.81;99997.47;107957;1259;59182;-66
2023/10/13 02:33:21;;;;;;;24.50;14.10;;;;;;;21.61;56.13;99999.20;107829;1256;73871;-67
2023/10/13 02:35:53;;;;;;;24.70;14.80;;;;;;;21.71;55.69;100000.88;107986;1259;70419;-62
2023/10/13 02:38:33;;;;;;;21.00;14.80;;;;;;;21.94;55.13;100002.74;107770;1257;72696;-65
2023/10/13 02:41:07;;;;;;;26.20;14.70;;;;;;;22.04;54.75;100002.64;107931;1254;60405;-66
2023/10/13 02:43:35;;;;;;;26.10;15.40;;;;;;;22.17;54.33;100005.61;108002;1253;60313;-68
2023/10/13 02:46:03;;;;;;;25.20;13.90;;;;;;;22.15;54.45;100006.14;108052;1258;73812;-67
2023/10/13 02:48:39;;;;;;;22.70;14.50;;;;;;;21.98;54.45;100006.04;108109;1259;68728;-67
2023/10/13 02:51:17;;;;;;;25.40;15.10;;;;;;;21.88;54.79;100006.68;107963;1254;72883;-67
2023/10/13 02:53:49;;;;;;;23.30;13.30;;;;;;;21.92;55.06;100011.14;108009;1253;61903;-66
2023/10/13 02:56:21;;;;;;;27.30;15.30;;;;;;;21.98;55.08;100017.43;107987;1254;60358;-67
2023/10/13 02:58:53;;;;;;;31.20;16.70;;;;;;;22.09;54.85;100018.98;107981;1254;74263;-67
2023/10/13 03:01:22;;;;;;;21.10;14.90;;;;;;;22.05;54.88;100022.04;107898;1253;70777;-67
2023/10/13 03:03:53;;;;;;;26.20;16.70;;;;;;;22.08;54.87;100021.61;107990;1258;72670;-67
2023/10/13 03:06:24;;;;;;;26.10;17.20;;;;;;;22.13;54.81;100026.66;108013;1254;61646;-69
2023/10/13 03:08:52;;;;;;;22.80;14.30;;;;;;;22.21;55.11;100023.32;107969;1254;60081;-68
2023/10/13 03:11:24;;;;;;;30.60;16.10;;;;;;;22.28;54.62;100019.85;108030;1259;72560;-67
2023/10/13 03:13:52;;;;;;;27.40;15.20;;;;;;;22.17;54.79;100024.56;107738;1253;70166;-68
2023/10/13 03:16:20;;;;;;;26.70;17.20;;;;;;;22.00;55.29;100026.14;107984;1256;72753;-68
2023/10/13 03:18:56;;;;;;;24.90;15.60;;;;;;;21.89;55.58;100027.88;107973;1257;60579;-67
2023/10/13 03:21:29;;;;;;;26.90;15.20;;;;;;;21.70;55.99;100033.09;108086;1255;60435;-66
2023/10/13 03:24:06;;;;;;;24.20;15.00;;;;;;;21.72;55.69;100028.63;108002;1253;72988;-68
2023/10/13 03:26:43;;;;;;;22.80;15.60;;;;;;;21.68;55.91;100026.86;107987;1254;69923;-66
2023/10/13 03:29:21;;;;;;;22.50;15.30;;;;;;;21.76;55.42;100026.89;108019;1256;71276;-66
2023/10/13 03:32:06;;;;;;;21.60;14.50;;;;;;;22.04;54.69;100029.48;108069;1255;60265;-66
2023/10/13 03:34:34;;;;;;;25.10;14.80;;;;;;;21.92;55.12;100029.39;108015;1259;60344;-66
2023/10/13 03:37:10;;;;;;;20.70;13.00;;;;;;;22.00;55.03;100032.64;107984;1254;72563;-68
2023/10/13 03:39:44;;;;;;;26.20;15.20;;;;;;;22.18;54.61;100038.66;108063;1258;70296;-66
2023/10/13 03:42:21;;;;;;;25.00;15.70;;;;;;;22.11;54.64;100042.27;108059;1257;71465;-67
2023/10/13 03:44:49;;;;;;;28.80;16.50;;;;;;;22.05;54.87;100045.78;107906;1256;60732;-68
2023/10/13 03:47:26;;;;;;;25.30;15.20;;;;;;;22.07;54.78;100046.66;107908;1255;60435;-68
2023/10/13 03:50:15;;;;;;;22.40;14.50;;;;;;;21.96;55.23;100054.78;107934;1260;73832;-67
2023/10/13 03:52:41;;;;;;;28.70;17.00;;;;;;;22.20;54.58;100053.08;107948;1260;69964;-69
2023/10/13 03:55:17;;;;;;;25.10;15.90;;;;;;;22.08;55.06;100053.42;107866;1257;71805;-67
2023/10/13 03:57:45;;;;;;;24.90;13.90;;;;;;;22.14;54.99;100058.81;107921;1260;61740;-67
2023/10/13 04:00:23;;;;;;;23.90;15.20;;;;;;;21.99;55.54;100065.29;107929;1255;60367;-69
2023/10/13 04:05:40;;;;;;;23.00;13.90;;;;;;;22.08;55.68;100069.31;107910;1257;70062;-68
2023/10/13 04:16:34;;;;;;;23.70;14.10;;;;;;;21.95;55.77;100062.72;107929;1255;73827;-68
2023/10/13 04:22:14;;;;;;;23.60;15.10;;;;;;;22.44;54.15;100071.96;108009;1258;72927;-67
2023/10/13 04:24:59;;;;;;;23.60;13.30;;;;;;;22.40;54.09;100078.59;107883;1262;60984;-68
2023/10/13 04:27:44;;;;;;;24.50;14.40;;;;;;;22.36;54.29;100079.38;107901;1260;60030;-69
2023/10/13 04:30:26;;;;;;;18.70;13.10;;;;;;;22.30;54.30;100078.30;107931;1260;72028;-66
2023/10/13 04:33:17;;;;;;;22.90;13.20;;;;;;;22.20;54.30;100087.80;107895;1257;68915;-67
2023/10/13 04:35:47;;;;;;;25.10;13.40;;;;;;;22.05;54.34;100095.32;107896;1259;72887;-66
2023/10/13 04:38:20;;;;;;;23.50;13.70;;;;;;;22.25;53.87;100106.36;107982;1258;61663;-67
2023/10/13 04:41:01;;;;;;;22.20;11.50;;;;;;;22.17;54.12;100113.81;107984;1254;60402;-69
2023/10/13 04:43:55;;;;;;;24.60;13.40;;;;;;;22.24;53.99;100124.98;108025;1257;73855;-69
2023/10/13 04:46:36;;;;;;;21.20;13.70;;;;;;;22.23;54.07;100129.20;107993;1254;70270;-68
2023/10/13 04:49:09;;;;;;;18.70;11.40;;;;;;;21.89;54.98;100133.48;108025;1257;71241;-68
2023/10/13 04:51:58;;;;;;;22.50;13.60;;;;;;;21.70;55.50;100140.08;108205;1254;61002;-67
2023/10/13 04:54:32;;;;;;;22.40;13.10;;;;;;;21.78;55.41;100144.98;108122;1254;60300;-67
2023/10/13 06:30:06;;;;;;;13.60;4.40;;;;;;;28.58;34.58;100237.75;107995;1254;60793;-68
2023/10/13 06:32:34;;;;;;;11.60;4.20;;;;;;;28.16;34.56;100238.20;108028;1254;74321;-69
2023/10/13 06:35:18;;;;;;;9.90;4.20;;;;;;;27.81;35.13;100244.96;108025;1257;70348;-68
2023/10/13 06:37:46;;;;;;;7.10;3.80;;;;;;;27.95;35.11;100243.20;107782;1257;72767;-68
2023/10/13 06:40:36;;;;;;;8.20;3.60;;;;;;;28.13;34.63;100241.38;108030;1257;60352;-68
2023/10/13 06:43:17;;;;;;;8.10;4.00;;;;;;;28.16;34.44;100252.42;107969;1257;61011;-68
2023/10/13 06:46:03;;;;;;;8.90;3.10;;;;;;;28.55;34.17;100259.14;107973;1257;72644;-68
2023/10/13 06:48:34;;;;;;;9.40;3.50;;;;;;;29.01;33.91;100264.30;107909;1258;69504;-68
2023/10/13 06:51:17;;;;;;;7.30;3.40;;;;;;;29.59;33.23;100261.77;107887;1257;72679;-69
2023/10/13 06:53:47;;;;;;;8.60;3.30;;;;;;;30.28;30.96;100261.11;107870;1257;60276;-68
2023/10/13 06:56:22;;;;;;;8.60;2.30;;;;;;;30.47;29.92;100261.23;107956;1257;60336;-68
2023/10/13 06:58:49;;;;;;;8.00;3.10;;;;;;;31.12;29.35;100265.98;107836;1257;73782;-70
2023/10/13 07:01:22;;;;;;;10.30;2.90;;;;;;;31.69;28.82;100265.21;107890;1257;69964;-68
2023/10/13 07:03:53;;;;;;;11.20;3.90;;;;;;;31.85;28.43;100269.46;107956;1257;72764;-68
2023/10/13 07:06:20;;;;;;;5.70;2.90;;;;;;;32.01;28.34;100274.02;107943;1257;60361;-69
2023/10/13 07:08:55;;;;;;;7.10;2.80;;;;;;;32.20;27.73;100278.48;107893;1255;59764;-68
2023/10/13 07:11:37;;;;;;;5.30;2.30;;;;;;;32.40;26.92;100268.95;107886;1258;76104;-70
2023/10/13 07:14:16;;;;;;;7.50;2.40;;;;;;;32.46;26.37;100265.40;107951;1257;68968;-69
2023/10/13 07:16:58;;;;;;;5.30;2.20;;;;;;;32.31;26.76;100270.79;107828;1257;72735;-69
2023/10/13 07:19:29;;;;;;;6.50;2.30;;;;;;;32.19;26.77;100271.27;107755;1256;59150;-69
2023/10/13 07:22:19;;;;;;;10.20;2.70;;;;;;;32.16;26.51;100268.31;108098;1256;59932;-70
2023/10/13 07:24:48;;;;;;;8.20;2.40;;;;;;;32.12;26.34;100269.44;107841;1255;73829;-70
2023/10/13 07:27:25;;;;;;;6.20;2.10;;;;;;;32.19;26.37;100277.73;107974;1257;68818;-70
2023/10/13 07:29:56;;;;;;;3.90;1.80;;;;;;;32.50;26.35;100276.59;107874;1257;73109;-71
2023/10/13 07:32:25;;;;;;;3.80;1.90;;;;;;;33.09;25.81;100288.27;107885;1258;60341;-70
2023/10/13 07:34:55;;;;;;;5.20;2.10;;;;;;;33.70;25.20;100288.83;107749;1258;60536;-69
2023/10/13 07:37:28;;;;;;;4.80;2.20;;;;;;;34.19;25.02;100289.70;107920;1257;72778;-69
2023/10/13 07:39:57;;;;;;;6.30;2.50;;;;;;;34.70;24.38;100287.24;107944;1257;60405;-68
2023/10/13 07:42:31;;;;;;;4.60;2.20;;;;;;;34.92;23.59;100285.52;108016;1257;62718;-68
2023/10/13 07:44:59;;;;;;;4.90;2.60;;;;;;;34.62;23.23;100288.34;108017;1255;59675;-69
2023/10/13 07:47:27;;;;;;;7.60;2.20;;;;;;;34.61;23.15;100291.45;108058;1254;60415;-68
2023/10/13 07:49:56;;;;;;;5.60;2.30;;;;;;;34.75;23.14;100295.15;107978;1254;64877;-68
2023/10/13 07:52:26;;;;;;;5.60;2.20;;;;;;;35.16;23.04;100297.80;107907;1258;60450;-68
2023/10/13 07:55:20;;;;;;;4.80;2.20;;;;;;;35.37;22.86;100300.34;107930;1260;64216;-69
2023/10/13 07:57:59;;;;;;;5.00;2.50;;;;;;;35.58;22.54;100296.30;108000;1254;60191;-68
2023/10/13 08:00:38;;;;;;;6.10;2.20;;;;;;;35.80;21.89;100300.95;107987;1260;60416;-68
2023/10/13 08:05:55;;;;;;;;;;;;;;;36.39;21.84;100302.55;107967;1257;61724;-69
2023/10/13 08:08:35;;;;;;;3.90;2.20;;;;;;;36.70;21.01;100297.89;107943;1254;63735;-68
2023/10/13 08:11:08;;;;;;;5.70;2.00;;;;;;;36.64;20.69;100298.28;107888;1260;60302;-68
2023/10/13 08:13:38;;;;;;;6.50;2.10;;;;;;;36.75;20.38;100301.20;107930;1255;60453;-69
2023/10/13 08:16:22;;;;;;;4.50;2.30;;;;;;;37.05;20.42;100306.83;108024;1256;65006;-68
2023/10/13 08:18:50;;;;;;;6.60;2.20;;;;;;;37.33;20.24;100310.99;107953;1257;60578;-69
2023/10/13 08:21:22;;;;;;;6.50;2.00;;;;;;;37.34;20.08;100312.67;107923;1256;63732;-71
2023/10/13 08:26:30;;;;;;;6.70;2.30;;;;;;;36.50;20.66;100317.46;108003;1257;60648;-71
2023/10/13 08:35:09;;;;;;;11.70;2.00;;;;;;;33.90;22.76;100325.79;107935;1256;63813;-69
2023/10/13 08:37:32;;;;;;;6.50;2.20;;;;;;;33.17;23.63;100323.10;107926;1256;60358;-69
2023/10/13 08:45:52;;;;;;;7.40;2.60;;;;;;;31.41;25.99;100328.30;107918;1253;70093;-69
2023/10/13 08:50:47;;;;;;;8.30;2.90;;;;;;;31.46;26.29;100329.23;107878;1256;60058;-67
2023/10/13 08:54:08;;;;;;;6.30;3.00;;;;;;;31.91;26.26;100332.66;108126;1253;60322;-68
2023/10/13 08:59:22;;;;;;;7.70;3.10;;;;;;;31.27;27.32;100337.54;105196;1288;599618;-70
2023/10/13 09:01:59;;;;;;;15.50;2.70;;;;;;;33.08;25.39;100332.91;107620;1263;60649;-69
2023/10/13 09:04:33;;;;;;;7.50;2.60;;;;;;;33.59;24.62;100336.73;107641;1263;59987;-69
2023/10/13 09:09:58;;;;;;;7.00;3.10;;;;;;;32.80;24.83;100352.54;107686;1262;61373;-69
2023/10/13 09:12:35;;;;;;;6.90;2.70;;;;;;;32.17;25.73;100352.52;107469;1256;266932;-69
2023/10/13 09:18:42;;;;;;;7.30;2.70;;;;;;;31.25;26.27;100361.05;107883;1256;59249;-69
2023/10/13 09:23:24;;;;;;;5.00;2.50;;;;;;;30.09;27.18;100371.08;107850;1258;69948;-68
2023/10/13 09:25:58;;;;;;;6.70;2.70;;;;;;;29.46;27.91;100369.37;107814;1260;72049;-67
2023/10/13 09:28:31;;;;;;;5.50;2.60;;;;;;;29.13;28.73;100373.83;107784;1260;60027;-69
2023/10/13 09:30:59;;;;;;;5.50;3.10;;;;;;;28.95;29.13;100370.92;107660;1257;60043;-67
2023/10/13 09:33:36;;;;;;;9.30;2.70;;;;;;;29.01;29.39;100368.73;107687;1257;72694;-67
2023/10/13 09:36:04;;;;;;;7.40;2.70;;;;;;;28.94;29.74;100370.48;107712;1257;68729;-69
2023/10/13 09:38:33;;;;;;;10.30;3.30;;;;;;;28.91;29.75;100367.90;107801;1260;72944;-68
2023/10/13 09:41:17;;;;;;;5.30;2.90;;;;;;;28.83;29.40;100365.98;107741;1257;60090;-71
2023/10/13 09:43:45;;;;;;;5.50;2.80;;;;;;;28.92;29.69;100364.99;107774;1261;61250;-69
2023/10/13 09:46:23;;;;;;;6.20;2.60;;;;;;;29.20;29.48;100358.40;107842;1257;73641;-69
2023/10/13 09:49:04;;;;;;;9.10;2.40;;;;;;;29.33;28.86;100355.00;107823;1258;69957;-70
2023/10/13 09:51:34;;;;;;;11.30;4.40;;;;;;;29.58;28.88;100356.95;107574;1257;71917;-68
2023/10/13 09:54:11;;;;;;;19.60;9.70;;;;;;;30.08;28.40;100353.27;107747;1257;60238;-69
2023/10/13 09:56:55;;;;;;;7.90;2.90;;;;;;;30.84;27.55;100346.70;107770;1257;59415;-69
2023/10/13 09:59:34;;;;;;;9.30;3.30;;;;;;;31.29;26.74;100345.45;107750;1257;72236;-67
2023/10/13 10:02:18;;;;;;;8.00;3.00;;;;;;;31.98;26.08;100348.48;107752;1257;70153;-69
2023/10/13 10:05:21;;;;;;;5.10;2.30;;;;;;;32.74;24.91;100350.00;107825;1257;72390;-70
2023/10/13 10:07:58;;;;;;;5.20;2.40;;;;;;;33.58;23.83;100342.48;107637;1257;59544;-69
2023/10/13 10:11:08;;;;;;;5.50;2.20;;;;;;;34.26;22.89;100341.29;107713;1257;59603;-69
2023/10/13 10:14:04;;;;;;;7.00;2.30;;;;;;;34.90;22.03;100336.94;107557;1257;74273;-69
2023/10/13 10:16:41;;;;;;;3.80;2.50;;;;;;;34.99;21.54;100336.80;107705;1257;73116;-70
2023/10/13 10:19:09;;;;;;;5.00;2.10;;;;;;;35.27;21.65;100338.23;107664;1263;63701;-70
2023/10/13 10:21:41;;;;;;;6.60;2.80;;;;;;;35.41;21.30;100329.97;107645;1260;59447;-68
2023/10/13 10:24:23;;;;;;;8.30;2.10;;;;;;;34.89;21.59;100337.00;107620;1257;59513;-70
2023/10/13 10:26:52;;;;;;;5.70;2.30;;;;;;;34.28;22.23;100347.45;107658;1257;62915;-69
2023/10/13 10:29:20;;;;;;;6.30;2.80;;;;;;;34.02;22.62;100350.85;107795;1257;61819;-68
2023/10/13 10:31:48;;;;;;;4.60;2.00;;;;;;;33.99;22.67;100348.36;107719;1257;72289;-69
2023/10/13 10:34:18;;;;;;;4.60;2.50;;;;;;;34.15;23.13;100343.67;107785;1257;59112;-69
2023/10/13 10:36:47;;;;;;;;;;;;;;;34.53;22.44;100334.59;107777;1257;59708;-69
2023/10/13 10:39:15;;;;;;;8.00;2.50;;;;;;;35.05;21.66;100329.44;107636;1257;62856;-70
2023/10/13 10:44:16;;;;;;;4.50;2.20;;;;;;;35.55;21.27;100334.20;107748;1257;62441;-70
2023/10/13 10:47:01;;;;;;;7.70;2.60;;;;;;;35.96;20.73;100332.40;107665;1258;59564;-69
2023/10/13 10:49:29;;;;;;;6.20;2.90;;;;;;;35.88;20.52;100332.09;107694;1257;60296;-69
2023/10/13 10:52:01;;;;;;;6.40;2.50;;;;;;;35.32;20.93;100336.35;107728;1257;64180;-70
2023/10/13 10:54:31;;;;;;;8.70;2.20;;;;;;;34.99;21.14;100331.70;107721;1257;61503;-69
2023/10/13 10:57:10;;;;;;;5.70;2.20;;;;;;;34.87;21.08;100329.40;107834;1256;63803;-68
2023/10/13 10:59:38;;;;;;;4.70;2.10;;;;;;;34.78;21.13;100329.48;107713;1257;60321;-70
2023/10/13 11:02:09;;;;;;;4.60;2.10;;;;;;;34.68;21.54;100328.31;107726;1256;59529;-69
2023/10/13 11:04:51;;;;;;;4.80;2.30;;;;;;;34.78;21.31;100325.08;107671;1257;64204;-69
2023/10/13 11:07:23;;;;;;;6.10;2.10;;;;;;;34.81;20.95;100331.27;107844;1257;61566;-70
2023/10/13 11:10:06;;;;;;;4.90;2.30;;;;;;;34.78;20.85;100333.73;107774;1262;63773;-70
2023/10/13 11:12:34;;;;;;;6.20;2.10;;;;;;;34.61;20.97;100331.63;107852;1256;59674;-68
2023/10/13 11:15:14;;;;;;;6.10;2.20;;;;;;;34.33;21.19;100333.08;107739;1256;59148;-73
2023/10/13 11:17:43;;;;;;;5.00;2.10;;;;;;;34.30;21.04;100335.77;107778;1257;73069;-70
2023/10/13 11:20:16;;;;;;;5.90;2.20;;;;;;;34.04;21.42;100338.41;107747;1257;61298;-68
2023/10/13 11:22:47;;;;;;;5.50;2.30;;;;;;;33.73;21.74;100333.45;107728;1257;62693;-68
2023/10/13 11:25:22;;;;;;;8.90;2.90;;;;;;;33.27;22.28;100333.02;107742;1257;60067;-68
2023/10/13 11:30:20;;;;;;;5.50;2.40;;;;;;;32.93;22.64;100335.58;107707;1257;73188;-69
2023/10/13 11:33:00;;;;;;;7.80;2.60;;;;;;;32.85;22.58;100338.30;107712;1257;69453;-67
2023/10/13 11:35:48;;;;;;;6.20;2.60;;;;;;;32.62;22.77;100338.45;107737;1259;72768;-69
2023/10/13 11:39:02;;;;;;;5.20;2.40;;;;;;;32.48;23.32;100333.15;107720;1256;60093;-68
2023/10/13 11:45:16;;;;;;;6.30;2.40;;;;;;;32.57;23.20;100337.82;107853;1256;72616;-68
2023/10/13 11:46:56;;;;;;;5.90;2.40;;;;;;;32.49;23.15;100340.84;107721;1257;70761;-69
2023/10/13 11:52:02;;;;;;;9.20;3.00;;;;;;;32.11;23.18;100343.02;107805;1260;58854;-68
2023/10/13 11:54:29;;;;;;;6.80;2.50;;;;;;;31.70;23.41;100339.27;107751;1257;60377;-68
2023/10/13 11:56:58;;;;;;;5.70;2.40;;;;;;;31.34;23.82;100342.89;107821;1257;73020;-68
2023/10/13 11:59:27;;;;;;;7.10;2.30;;;;;;;31.08;24.16;100341.45;107713;1256;70173;-69
2023/10/13 12:04:48;;;;;;;7.00;2.60;;;;;;;30.89;24.55;100330.22;107761;1261;59615;-69
2023/10/13 12:07:17;;;;;;;8.60;2.90;;;;;;;30.87;24.67;100330.31;107755;1261;61067;-70
2023/10/13 12:12:27;;;;;;;6.60;2.60;;;;;;;30.80;25.00;100328.73;107784;1257;68847;-68
2023/10/13 12:14:57;;;;;;;10.50;2.90;;;;;;;30.49;25.14;100335.70;107924;1257;71827;-68
2023/10/13 12:17:34;;;;;;;5.60;2.70;;;;;;;30.29;25.34;100332.17;107848;1260;59506;-68
2023/10/13 12:20:10;;;;;;;7.70;2.90;;;;;;;30.27;25.50;100329.73;107778;1257;60510;-68
2023/10/13 12:22:51;;;;;;;5.60;2.60;;;;;;;30.03;25.21;100329.21;107622;1256;71486;-69
2023/10/13 12:25:24;;;;;;;10.90;3.40;;;;;;;30.02;25.21;100326.48;107717;1256;70541;-71
2023/10/13 12:27:56;;;;;;;7.40;2.80;;;;;;;30.26;25.13;100327.27;107765;1256;72639;-69
2023/10/13 12:30:48;;;;;;;5.00;2.30;;;;;;;30.37;25.11;100329.48;107767;1256;59536;-68
2023/10/13 12:33:24;;;;;;;12.00;3.10;;;;;;;30.23;25.28;100329.28;107750;1260;60067;-69
2023/10/13 12:52:16;;;;;;;5.40;2.80;;;;;;;29.56;25.48;100334.64;107925;1256;70556;-69
2023/10/13 12:57:27;;;;;;;6.50;2.70;;;;;;;29.04;26.17;100335.74;107729;1257;60121;-68
2023/10/13 12:59:55;;;;;;;7.50;2.40;;;;;;;29.21;25.88;100340.00;107866;1256;59682;-69
2023/10/13 13:02:24;;;;;;;6.40;2.60;;;;;;;29.09;25.66;100341.78;107832;1257;72147;-70
2023/10/13 13:05:06;;;;;;;6.30;2.70;;;;;;;28.84;26.46;100342.33;107731;1256;69304;-68
2023/10/13 13:07:43;;;;;;;;;;;;;;;28.71;26.38;100343.63;107765;1257;74688;-69
2023/10/13 13:10:14;;;;;;;10.70;3.10;;;;;;;28.56;26.47;100350.05;107747;1257;60167;-68
2023/10/13 13:12:41;;;;;;;6.90;2.80;;;;;;;28.60;26.70;100347.50;107750;1257;61035;-69
2023/10/13 13:15:11;;;;;;;6.00;2.90;;;;;;;28.59;26.53;100349.98;107742;1256;73195;-67
2023/10/13 13:17:39;;;;;;;5.40;2.70;;;;;;;28.60;26.64;100348.89;107816;1256;70480;-67
2023/10/13 13:20:11;;;;;;;8.20;3.10;;;;;;;28.53;26.60;100346.30;107774;1257;72517;-68
2023/10/13 13:22:39;;;;;;;5.70;2.70;;;;;;;28.43;26.26;100344.95;107741;1257;60577;-68
2023/10/13 13:25:08;;;;;;;6.20;2.60;;;;;;;28.26;26.68;100344.17;107817;1257;61051;-69
2023/10/13 13:27:36;;;;;;;6.60;2.80;;;;;;;28.20;26.83;100345.63;107788;1256;73913;-69
2023/10/13 13:30:12;;;;;;;6.30;2.50;;;;;;;28.20;26.90;100341.37;107871;1256;71492;-69
2023/10/13 13:32:40;;;;;;;5.90;2.50;;;;;;;28.11;27.06;100348.31;107794;1256;72871;-68
2023/10/13 13:35:13;;;;;;;7.90;2.90;;;;;;;27.94;27.15;100348.42;107617;1256;60279;-69
2023/10/13 13:37:44;;;;;;;6.30;2.90;;;;;;;27.88;27.15;100347.70;107782;1256;60990;-67
2023/10/13 13:40:17;;;;;;;4.70;2.80;;;;;;;27.88;27.20;100351.11;107789;1256;75591;-68
2023/10/13 13:42:45;;;;;;;7.40;3.20;;;;;;;27.85;27.28;100352.17;107810;1257;69947;-68
2023/10/13 13:45:27;;;;;;;5.30;2.60;;;;;;;27.72;27.43;100353.46;107681;1257;72789;-67
2023/10/13 13:47:55;;;;;;;10.90;3.00;;;;;;;27.54;27.55;100347.29;107626;1257;60440;-69
2023/10/13 13:50:31;;;;;;;7.90;2.60;;;;;;;27.40;27.76;100352.39;107717;1257;61367;-68
2023/10/13 13:53:08;;;;;;;7.90;2.60;;;;;;;27.29;28.14;100353.88;107727;1257;72569;-69
2023/10/13 13:55:39;;;;;;;6.50;2.90;;;;;;;27.32;28.08;100354.55;107688;1257;69433;-70
2023/10/13 13:58:12;;;;;;;4.60;2.50;;;;;;;27.26;27.94;100355.11;107662;1257;71448;-68
2023/10/13 14:00:48;;;;;;;8.90;2.80;;;;;;;26.99;28.32;100357.41;107754;1257;60461;-69
2023/10/13 14:03:30;;;;;;;4.80;2.70;;;;;;;26.78;28.65;100359.02;107737;1257;60329;-67
2023/10/13 14:05:59;;;;;;;6.40;2.60;;;;;;;26.89;28.47;100355.23;107673;1257;72927;-68
2023/10/13 14:08:30;;;;;;;6.20;3.00;;;;;;;26.58;28.78;100365.23;107781;1257;69199;-69
2023/10/13 14:13:49;;;;;;;4.90;2.60;;;;;;;26.55;29.10;100371.43;107778;1257;60356;-70
2023/10/13 14:16:17;;;;;;;4.70;2.40;;;;;;;26.54;29.18;100364.88;107713;1257;60435;-68
2023/10/13 14:18:45;;;;;;;6.10;3.10;;;;;;;26.92;28.65;100365.17;107656;1257;72578;-69
2023/10/13 14:21:16;;;;;;;8.10;2.80;;;;;;;26.70;29.04;100368.33;107796;1257;68760;-68
2023/10/13 14:23:47;;;;;;;;;;;;;;;26.61;28.95;100372.68;107696;1257;72843;-68
2023/10/13 14:26:20;;;;;;;5.70;2.60;;;;;;;26.35;29.09;100376.13;107737;1257;60266;-68
2023/10/13 14:31:37;;;;;;;9.90;3.00;;;;;;;25.78;30.01;100378.27;107767;1257;72483;-69
2023/10/13 14:34:06;;;;;;;8.20;3.10;;;;;;;25.87;30.03;100378.67;107746;1257;70433;-67
2023/10/13 14:36:36;;;;;;;7.40;3.20;;;;;;;25.94;30.15;100382.03;107901;1256;71872;-66
2023/10/13 14:39:10;;;;;;;6.80;2.70;;;;;;;25.86;30.11;100381.46;107932;1256;60463;-68
2023/10/13 14:41:38;;;;;;;7.90;2.90;;;;;;;25.93;30.29;100377.23;108042;1254;60267;-68
2023/10/13 14:44:06;;;;;;;6.30;2.90;;;;;;;25.85;30.48;100375.67;108064;1254;72182;-68
2023/10/13 14:46:39;;;;;;;6.40;3.00;;;;;;;25.49;31.08;100374.44;107946;1254;68902;-68
2023/10/13 14:49:07;;;;;;;6.60;2.80;;;;;;;25.48;31.18;100375.59;107930;1255;71337;-67
2023/10/13 14:51:39;;;;;;;10.30;3.00;;;;;;;25.45;31.21;100379.27;107940;1254;60184;-69
2023/10/13 14:54:07;;;;;;;6.00;3.00;;;;;;;25.39;31.69;100381.00;108011;1254;60422;-69